Time;durP1;ratioP1;P1;durP2;ratioP2;P2;SDS_P1;SDS_P2;PMS_P1;PMS_P2;Temp;Humidity;BMP_temperature;BMP_pressure;BME280_temperature;BME280_humidity;BME280_pressure;Samples;Min_cycle;Max_cycle;Signal;HPM_P1;HPM_P2
2021/11/17 02:27:57;;;;;;;55.03;24.13;;;-1.80;99.90;;;;;;5034924;28;20107;-75
2021/11/17 02:30:29;;;;;;;45.70;23.38;;;-1.80;99.90;;;;;;5033563;28;20103;-75
2021/11/17 02:33:23;;;;;;;53.58;23.42;;;-1.80;99.90;;;;;;5034883;28;20033;-75
2021/11/17 02:36:08;;;;;;;49.15;22.55;;;-1.90;99.90;;;;;;5026245;28;20489;-75
2021/11/17 02:38:48;;;;;;;52.90;24.98;;;-1.90;99.90;;;;;;5034678;28;20037;-75
2021/11/17 02:41:17;;;;;;;46.40;23.75;;;-1.90;99.90;;;;;;5034446;28;20025;-75
2021/11/17 02:44:22;;;;;;;54.17;25.10;;;-1.90;99.90;;;;;;5034554;28;20029;-75
2021/11/17 02:47:18;;;;;;;49.35;26.25;;;-1.90;99.90;;;;;;5033263;28;20049;-75
2021/11/17 02:50:25;;;;;;;42.47;24.05;;;-1.90;99.90;;;;;;5033282;28;20071;-75
2021/11/17 02:53:00;;;;;;;43.70;23.58;;;-1.90;99.90;;;;;;5016171;28;20056;-75
2021/11/17 02:55:31;;;;;;;48.50;25.13;;;-1.90;99.90;;;;;;5032801;28;20517;-75
2021/11/17 02:58:07;;;;;;;53.92;24.50;;;-1.90;99.90;;;;;;5033956;28;20040;-75
2021/11/17 03:01:04;;;;;;;43.22;21.52;;;-1.90;99.90;;;;;;5034291;28;20029;-75
2021/11/17 03:03:57;;;;;;;41.70;22.25;;;-1.90;99.90;;;;;;5032971;28;20049;-75
2021/11/17 03:06:32;;;;;;;;;;;-1.90;99.90;;;;;;5034698;28;20022;-75
2021/11/17 03:09:22;;;;;;;44.30;22.10;;;-2.00;99.90;;;;;;5034091;28;19909;-75
2021/11/17 03:11:51;;;;;;;44.25;22.73;;;-2.00;99.90;;;;;;5032838;28;20037;-75
2021/11/17 03:14:25;;;;;;;39.08;20.45;;;-2.00;99.90;;;;;;5034028;28;20087;-75
2021/11/17 03:17:12;;;;;;;43.92;21.65;;;-2.00;99.90;;;;;;5032684;28;20041;-75
2021/11/17 03:20:08;;;;;;;43.78;21.17;;;-2.00;99.90;;;;;;5033924;28;20025;-75
2021/11/17 03:23:08;;;;;;;47.47;23.98;;;-2.00;99.90;;;;;;5023477;28;20100;-75
2021/11/17 03:25:46;;;;;;;41.45;20.92;;;-2.00;99.90;;;;;;5033799;28;20108;-75
2021/11/17 03:28:35;;;;;;;41.38;20.52;;;-2.00;99.90;;;;;;5017120;28;20388;-75
2021/11/17 03:31:22;;;;;;;37.33;21.73;;;-2.00;99.90;;;;;;5013729;28;20042;-75
2021/11/17 03:33:51;;;;;;;38.97;19.67;;;-2.10;99.90;;;;;;5012684;28;20018;-75
2021/11/17 03:36:24;;;;;;;50.20;23.30;;;-2.00;99.90;;;;;;5013772;28;20054;-75
2021/11/17 03:39:07;;;;;;;;;;;-2.10;99.90;;;;;;5017033;28;20029;-75
2021/11/17 03:41:55;;;;;;;;;;;-2.10;99.90;;;;;;5032646;28;19912;-75
2021/11/17 03:44:45;;;;;;;38.53;20.52;;;-2.10;99.90;;;;;;5032208;28;20314;-75
2021/11/17 03:47:25;;;;;;;44.05;20.85;;;-2.10;99.90;;;;;;5033440;28;20075;-75
2021/11/17 03:49:57;;;;;;;47.33;22.73;;;-2.20;99.90;;;;;;5033357;28;20036;-75
2021/11/17 03:52:43;;;;;;;33.92;19.05;;;-2.20;99.90;;;;;;5033258;28;20021;-75
2021/11/17 03:55:09;;;;;;;37.38;19.90;;;-2.20;99.90;;;;;;5032112;28;20100;-75
2021/11/17 03:58:18;;;;;;;43.20;22.38;;;-2.20;99.90;;;;;;5033180;28;20566;-75
2021/11/17 04:00:53;;;;;;;47.22;21.83;;;-2.10;99.90;;;;;;5021148;28;20038;-75
2021/11/17 04:03:21;;;;;;;36.40;20.38;;;-2.10;99.90;;;;;;5016966;28;20111;-75
2021/11/17 04:05:50;;;;;;;52.15;23.52;;;-2.10;99.90;;;;;;5013368;28;20038;-75
2021/11/17 04:08:34;;;;;;;48.13;22.05;;;-2.20;99.90;;;;;;5013390;28;20549;-75
2021/11/17 04:11:50;;;;;;;49.80;23.75;;;-2.20;99.90;;;;;;5013259;28;20068;-75
2021/11/17 04:14:37;;;;;;;47.63;23.52;;;-2.20;99.90;;;;;;5012086;28;20038;-75
2021/11/17 04:17:05;;;;;;;41.80;22.13;;;-2.10;99.90;;;;;;5013299;28;20396;-75
2021/11/17 04:19:31;;;;;;;55.80;23.88;;;-2.20;99.90;;;;;;5013160;28;20032;-75
2021/11/17 04:22:03;;;;;;;46.47;24.38;;;-2.20;99.90;;;;;;5013266;28;20026;-75
2021/11/17 04:25:07;;;;;;;42.33;21.25;;;-2.20;99.90;;;;;;5011959;28;20052;-75
2021/11/17 04:27:51;;;;;;;41.55;20.50;;;-2.20;99.90;;;;;;5011601;28;20061;-75
2021/11/17 04:30:52;;;;;;;34.67;19.52;;;-2.20;99.90;;;;;;5011445;28;20030;-75
2021/11/17 04:33:39;;;;;;;43.92;22.50;;;-2.20;99.90;;;;;;5013190;28;20022;-75
2021/11/17 04:36:26;;;;;;;41.80;23.90;;;-2.20;99.90;;;;;;5013044;28;20119;-75
2021/11/17 04:39:03;;;;;;;45.03;21.00;;;-2.30;99.90;;;;;;5011790;28;20030;-75
2021/11/17 04:41:55;;;;;;;57.53;25.42;;;-2.30;99.90;;;;;;5012436;28;20026;-75
2021/11/17 04:44:54;;;;;;;54.22;26.20;;;-2.40;99.90;;;;;;5012967;28;20026;-75
2021/11/17 04:47:47;;;;;;;47.47;23.63;;;-2.40;99.90;;;;;;5013109;28;20026;-75
2021/11/17 04:50:34;;;;;;;43.05;22.83;;;-2.30;99.90;;;;;;5013017;28;20420;-75
2021/11/17 04:53:19;;;;;;;49.80;24.08;;;-2.30;99.90;;;;;;5012960;28;20026;-75
2021/11/17 04:55:44;;;;;;;52.45;25.85;;;-2.20;99.90;;;;;;5012921;28;20025;-77
2021/11/17 04:58:21;;;;;;;48.25;25.70;;;-2.20;99.90;;;;;;5011530;28;20034;-75
2021/11/17 05:01:05;;;;;;;56.03;28.90;;;-2.20;99.90;;;;;;5011524;28;20041;-75
2021/11/17 05:03:43;;;;;;;57.88;26.38;;;-2.10;99.90;;;;;;5012857;28;20033;-75
2021/11/17 05:06:14;;;;;;;50.72;25.63;;;-2.10;99.90;;;;;;5013169;28;20041;-75
2021/11/17 05:08:55;;;;;;;50.67;24.73;;;-2.10;99.90;;;;;;5011494;28;20021;-75
2021/11/17 05:11:52;;;;;;;45.42;24.92;;;-2.10;99.90;;;;;;5023326;28;20036;-75
2021/11/17 05:14:37;;;;;;;45.40;24.33;;;-2.20;99.90;;;;;;5031114;28;20026;-75
2021/11/17 05:17:21;;;;;;;43.45;22.92;;;-2.20;99.90;;;;;;5032136;28;20029;-75
2021/11/17 05:20:11;;;;;;;37.17;18.98;;;-2.40;99.90;;;;;;5032328;28;20483;-75
2021/11/17 05:22:58;;;;;;;40.20;21.17;;;-2.50;99.90;;;;;;5031402;28;20030;-75
2021/11/17 05:25:30;;;;;;;37.08;20.80;;;-2.60;99.90;;;;;;5032366;28;20088;-75
2021/11/17 05:28:23;;;;;;;51.30;26.05;;;-2.70;99.90;;;;;;5032339;28;20029;-75
2021/11/17 05:30:51;;;;;;;54.30;28.58;;;-2.70;99.90;;;;;;5031052;28;20467;-75
2021/11/17 05:33:42;;;;;;;132.23;47.80;;;-2.70;99.90;;;;;;5032315;28;20025;-75
2021/11/17 05:36:13;;;;;;;133.63;50.22;;;-2.70;99.90;;;;;;5030804;28;20026;-75
2021/11/17 05:38:42;;;;;;;83.93;36.53;;;-2.70;99.90;;;;;;5030179;28;20036;-75
2021/11/17 05:41:19;;;;;;;79.15;33.75;;;-2.70;99.90;;;;;;5032027;28;20061;-75
2021/11/17 05:43:54;;;;;;;69.25;30.95;;;-2.70;99.90;;;;;;5034944;28;20491;-75
2021/11/17 05:46:31;;;;;;;64.47;29.30;;;-2.70;99.90;;;;;;5034139;28;20124;-74
2021/11/17 05:49:06;;;;;;;52.22;28.55;;;-2.70;99.90;;;;;;5035616;28;20105;-75
2021/11/17 05:52:09;;;;;;;50.70;24.60;;;-2.70;99.90;;;;;;5034001;28;20026;-75
2021/11/17 05:54:35;;;;;;;;;;;-2.60;99.90;;;;;;5034307;28;20026;-75
2021/11/17 05:57:34;;;;;;;52.97;23.58;;;-2.60;99.90;;;;;;5033602;28;20271;-75
2021/11/17 06:00:15;;;;;;;50.45;23.48;;;-2.60;99.90;;;;;;5033156;28;20029;-75
2021/11/17 06:03:07;;;;;;;50.65;25.52;;;-2.60;99.90;;;;;;5035379;28;20033;-75
2021/11/17 06:05:32;;;;;;;54.95;25.38;;;-2.70;99.90;;;;;;5034830;28;20048;-75
2021/11/17 06:07:58;;;;;;;56.75;26.17;;;-2.60;99.90;;;;;;5036541;28;20383;-73
2021/11/17 06:10:35;;;;;;;56.17;28.73;;;-2.60;99.90;;;;;;5028023;28;20121;-74
2021/11/17 06:13:06;;;;;;;48.80;25.98;;;-2.70;99.90;;;;;;5037562;28;20031;-75
2021/11/17 06:15:33;;;;;;;52.60;27.70;;;-2.70;99.90;;;;;;5046733;28;20108;-74
2021/11/17 06:18:00;;;;;;;58.92;27.50;;;-2.70;99.90;;;;;;5042368;28;20041;-75
2021/11/17 06:20:26;;;;;;;56.92;28.42;;;-2.70;99.90;;;;;;5041784;28;20116;-75
2021/11/17 06:22:57;;;;;;;48.42;26.15;;;-2.70;99.90;;;;;;5041494;28;20029;-75
2021/11/17 06:25:23;;;;;;;50.58;26.75;;;-2.70;99.90;;;;;;5045063;28;20037;-75
2021/11/17 06:27:53;;;;;;;57.55;27.65;;;-2.70;99.90;;;;;;5033003;28;20056;-75
2021/11/17 06:30:21;;;;;;;57.90;30.48;;;-2.70;99.90;;;;;;5032919;28;20108;-75
2021/11/17 06:32:47;;;;;;;62.97;32.80;;;-2.70;99.90;;;;;;5034029;28;20391;-75
2021/11/17 06:35:16;;;;;;;70.65;36.30;;;-2.60;99.90;;;;;;5032956;28;20041;-75
2021/11/17 06:37:42;;;;;;;76.18;37.00;;;-2.60;99.90;;;;;;5033574;28;20479;-76
2021/11/17 06:40:13;;;;;;;84.70;44.22;;;-2.60;99.90;;;;;;5031561;28;20124;-75
2021/11/17 06:42:53;;;;;;;88.82;45.25;;;-2.50;99.90;;;;;;5034645;28;20045;-75
2021/11/17 06:45:41;;;;;;;78.60;41.08;;;-2.50;99.90;;;;;;5033713;28;20029;-75
2021/11/17 06:48:08;;;;;;;77.32;36.63;;;-2.40;99.90;;;;;;5032215;28;20041;-75
2021/11/17 06:50:36;;;;;;;102.03;48.63;;;-2.40;99.90;;;;;;5032979;28;20025;-74
2021/11/17 06:53:02;;;;;;;98.13;44.33;;;-2.40;99.90;;;;;;5031408;28;20025;-75
2021/11/17 06:55:28;;;;;;;101.15;47.20;;;-2.30;99.90;;;;;;5031679;28;20030;-75
2021/11/17 06:57:54;;;;;;;94.47;45.80;;;-2.30;99.90;;;;;;5034246;28;20103;-75
2021/11/17 07:00:26;;;;;;;82.40;35.15;;;-2.20;99.90;;;;;;5032710;28;20075;-75
2021/11/17 07:02:52;;;;;;;77.55;38.55;;;-2.20;99.90;;;;;;5034141;28;20029;-75
2021/11/17 07:05:20;;;;;;;91.22;41.53;;;-2.10;99.90;;;;;;5034226;28;20372;-75
2021/11/17 07:07:46;;;;;;;93.90;42.13;;;-2.10;99.90;;;;;;5034192;28;20048;-75
2021/11/17 07:10:14;;;;;;;101.65;47.70;;;-2.00;99.90;;;;;;5034237;28;20060;-75
2021/11/17 07:12:40;;;;;;;113.10;51.35;;;-1.90;99.90;;;;;;5034063;28;20095;-75
2021/11/17 07:15:08;;;;;;;128.85;62.45;;;-1.90;99.90;;;;;;5033987;28;20029;-75
2021/11/17 07:17:34;;;;;;;158.35;77.70;;;-1.80;99.90;;;;;;5033164;28;20372;-75
2021/11/17 07:20:00;;;;;;;143.10;70.13;;;-1.70;99.90;;;;;;5031723;28;20341;-74
2021/11/17 07:22:26;;;;;;;154.35;76.13;;;-1.60;99.90;;;;;;5031790;28;20035;-75
2021/11/17 07:24:51;;;;;;;138.60;71.65;;;-1.60;99.90;;;;;;5032357;28;20249;-75
2021/11/17 07:27:23;;;;;;;125.82;64.70;;;-1.50;99.90;;;;;;5031536;28;20391;-75
2021/11/17 07:29:52;;;;;;;120.32;61.47;;;-1.40;99.90;;;;;;5033666;28;20072;-75
2021/11/17 07:32:19;;;;;;;131.30;66.30;;;-1.30;99.90;;;;;;5032417;28;20022;-75
2021/11/17 07:34:45;;;;;;;138.23;68.55;;;-1.30;99.90;;;;;;5033622;28;20471;-75
2021/11/17 07:37:11;;;;;;;141.57;68.70;;;-1.20;99.90;;;;;;5033759;28;20025;-75
2021/11/17 07:39:37;;;;;;;117.88;62.00;;;-1.20;99.90;;;;;;5033352;28;20111;-75
2021/11/17 07:42:04;;;;;;;123.45;65.53;;;-1.10;99.90;;;;;;5032235;28;20360;-75
2021/11/17 07:44:30;;;;;;;122.38;63.72;;;-1.10;99.90;;;;;;5033374;28;20029;-75
2021/11/17 07:46:57;;;;;;;120.47;64.28;;;-1.00;99.90;;;;;;5033480;28;20020;-75
2021/11/17 07:49:25;;;;;;;119.63;60.92;;;-0.90;99.90;;;;;;5033313;28;20033;-75
2021/11/17 07:51:51;;;;;;;105.45;59.33;;;-0.80;99.90;;;;;;5033100;28;20037;-75
2021/11/17 07:54:19;;;;;;;111.68;58.40;;;-0.70;99.90;;;;;;5033175;28;20056;-75
2021/11/17 07:56:46;;;;;;;113.68;59.60;;;-0.70;99.90;;;;;;5033172;28;20025;-75
2021/11/17 07:59:16;;;;;;;100.60;52.47;;;-0.60;99.90;;;;;;5033200;28;20025;-75
2021/11/17 08:01:46;;;;;;;107.93;52.53;;;-0.50;99.90;;;;;;5033222;28;20033;-75
2021/11/17 08:04:16;;;;;;;93.18;49.30;;;-0.40;99.90;;;;;;5033207;28;20100;-75
2021/11/17 08:06:44;;;;;;;94.85;50.47;;;-0.30;99.90;;;;;;5031289;28;20025;-75
2021/11/17 08:09:10;;;;;;;91.25;49.72;;;-0.20;99.90;;;;;;5032996;28;20483;-75
2021/11/17 08:11:37;;;;;;;89.35;48.72;;;-0.10;99.90;;;;;;5033034;28;20056;-75
2021/11/17 08:14:03;;;;;;;85.15;46.80;;;0.00;99.90;;;;;;5032987;28;20048;-75
2021/11/17 08:16:28;;;;;;;90.80;50.63;;;0.00;99.90;;;;;;5032942;28;20025;-75
2021/11/17 08:18:54;;;;;;;97.70;50.97;;;0.10;99.90;;;;;;5032907;28;20076;-75
2021/11/17 08:21:20;;;;;;;97.35;52.17;;;0.20;99.90;;;;;;5032891;28;20026;-75
2021/11/17 08:23:46;;;;;;;106.63;54.40;;;0.30;99.90;;;;;;5032923;28;20022;-75
2021/11/17 08:26:13;;;;;;;104.13;58.83;;;0.40;99.90;;;;;;5032839;28;20022;-75
2021/11/17 08:28:41;;;;;;;143.57;64.65;;;0.60;99.90;;;;;;5032764;28;20083;-75
2021/11/17 08:31:12;;;;;;;138.60;66.10;;;0.70;99.90;;;;;;5031411;28;20482;-75
2021/11/17 08:33:39;;;;;;;153.63;72.22;;;0.80;99.90;;;;;;5032807;28;20021;-75
2021/11/17 08:36:04;;;;;;;161.20;73.03;;;1.00;99.90;;;;;;5032715;28;20470;-75
2021/11/17 08:38:31;;;;;;;126.68;63.25;;;1.10;99.90;;;;;;5031411;28;20025;-75
2021/11/17 08:41:01;;;;;;;121.55;65.15;;;1.30;99.90;;;;;;5031345;28;20029;-75
2021/11/17 08:43:29;;;;;;;128.18;64.13;;;1.40;99.90;;;;;;5032693;28;20100;-75
2021/11/17 08:45:56;;;;;;;101.63;56.33;;;1.50;99.90;;;;;;5032708;28;20471;-75
2021/11/17 08:48:25;;;;;;;91.65;45.53;;;1.60;99.90;;;;;;5032663;28;20026;-75
2021/11/17 08:50:56;;;;;;;80.03;39.65;;;1.80;99.90;;;;;;5032492;28;20496;-75
2021/11/17 08:53:24;;;;;;;67.97;36.40;;;1.90;99.90;;;;;;5031277;28;20076;-75
2021/11/17 08:55:51;;;;;;;67.78;37.65;;;2.00;99.90;;;;;;5032836;28;20018;-75
2021/11/17 08:58:18;;;;;;;72.05;36.20;;;2.20;99.90;;;;;;5031254;28;20450;-75
2021/11/17 09:00:46;;;;;;;66.40;35.83;;;2.30;99.90;;;;;;5032539;28;20075;-75
2021/11/17 09:03:12;;;;;;;66.68;33.53;;;2.40;99.90;;;;;;5032619;28;20021;-75
2021/11/17 09:05:42;;;;;;;68.38;32.42;;;2.40;99.90;;;;;;5032508;28;20057;-75
2021/11/17 09:08:09;;;;;;;62.95;31.42;;;2.60;99.90;;;;;;5032506;28;20014;-75
2021/11/17 09:10:41;;;;;;;56.30;30.52;;;2.60;99.90;;;;;;5032650;28;20029;-75
2021/11/17 09:13:07;;;;;;;62.35;32.90;;;2.80;99.90;;;;;;5029001;28;20368;-75
2021/11/17 09:15:37;;;;;;;53.72;28.83;;;2.90;99.90;;;;;;5023192;28;20049;-75
2021/11/17 09:18:04;;;;;;;60.60;30.20;;;3.00;99.90;;;;;;5035719;28;20061;-75
2021/11/17 09:20:30;;;;;;;69.68;34.95;;;3.10;99.90;;;;;;5021505;28;20475;-75
2021/11/17 09:22:57;;;;;;;71.70;34.35;;;3.10;99.90;;;;;;5015099;28;20022;-75
2021/11/17 09:25:24;;;;;;;57.05;30.67;;;3.20;99.90;;;;;;5016289;28;20112;-75
2021/11/17 09:27:49;;;;;;;58.53;29.30;;;3.10;99.90;;;;;;5015023;28;20479;-75
2021/11/17 09:30:19;;;;;;;64.50;30.77;;;3.20;99.90;;;;;;5016183;28;20030;-75
2021/11/17 09:32:50;;;;;;;68.82;32.25;;;3.20;99.90;;;;;;5034315;28;20079;-75
2021/11/17 09:35:15;;;;;;;59.95;31.70;;;3.30;99.90;;;;;;5035826;28;20025;-75
2021/11/17 09:37:44;;;;;;;59.03;32.75;;;3.30;99.90;;;;;;5034534;28;20029;-75
2021/11/17 09:40:13;;;;;;;56.85;29.95;;;3.40;99.90;;;;;;5035777;28;20032;-75
2021/11/17 09:42:39;;;;;;;63.53;35.50;;;3.40;99.90;;;;;;5035775;28;20025;-75
2021/11/17 09:45:09;;;;;;;61.28;29.95;;;3.50;99.90;;;;;;5035672;28;20501;-75
2021/11/17 09:47:36;;;;;;;61.65;34.13;;;3.50;99.90;;;;;;5035725;28;20032;-75
2021/11/17 09:50:19;;;;;;;60.60;32.10;;;3.50;99.90;;;;;;5035593;28;20133;-75
2021/11/17 09:52:51;;;;;;;59.65;32.33;;;3.60;99.90;;;;;;5034229;28;20021;-75
2021/11/17 09:55:42;;;;;;;59.63;29.52;;;3.70;99.90;;;;;;5031912;28;20026;-75
2021/11/17 09:58:13;;;;;;;55.70;29.98;;;3.70;99.90;;;;;;5015609;28;20038;-75
2021/11/17 10:00:53;;;;;;;57.58;30.40;;;3.70;99.90;;;;;;5015642;28;20084;-75
2021/11/17 10:03:28;;;;;;;56.38;29.92;;;3.80;99.90;;;;;;5014465;28;20021;-75
2021/11/17 10:11:43;;;;;;;51.13;28.85;;;3.80;99.90;;;;;;5016050;28;20049;-75
2021/11/17 10:14:31;;;;;;;58.60;31.92;;;3.90;99.90;;;;;;5015511;28;20029;-75
2021/11/17 10:16:57;;;;;;;51.42;29.70;;;3.90;99.90;;;;;;5015314;28;20046;-73
2021/11/17 10:19:33;;;;;;;54.30;29.38;;;4.00;99.90;;;;;;5014034;28;20092;-73
2021/11/17 10:22:06;;;;;;;54.40;29.42;;;4.10;99.90;;;;;;5013965;28;20033;-73
2021/11/17 10:24:48;;;;;;;49.28;28.15;;;4.10;99.90;;;;;;5015190;28;20023;-73
2021/11/17 10:27:24;;;;;;;49.55;28.98;;;4.10;99.90;;;;;;5015168;28;20022;-73
2021/11/17 10:30:19;;;;;;;52.85;29.95;;;4.10;99.90;;;;;;5014530;28;20226;-73
2021/11/17 10:33:06;;;;;;;54.53;30.08;;;4.10;99.90;;;;;;5015141;28;20022;-73
2021/11/17 10:35:53;;;;;;;53.47;30.55;;;4.20;99.90;;;;;;5014990;28;20387;-73
2021/11/17 10:38:23;;;;;;;53.05;29.38;;;4.30;99.90;;;;;;5013641;28;20128;-73
2021/11/17 10:41:02;;;;;;;48.72;25.83;;;4.30;99.90;;;;;;5013565;28;20026;-73
2021/11/17 10:43:48;;;;;;;55.72;32.90;;;4.30;99.90;;;;;;5013646;28;20032;-73
2021/11/17 10:46:20;;;;;;;78.82;40.08;;;4.40;99.90;;;;;;5014816;28;20022;-73
2021/11/17 10:49:09;;;;;;;56.22;29.98;;;4.40;99.90;;;;;;5014887;28;20061;-73
2021/11/17 10:51:58;;;;;;;51.17;29.08;;;4.40;99.90;;;;;;5014610;28;20148;-73
2021/11/17 10:54:28;;;;;;;56.05;29.70;;;4.50;99.90;;;;;;5014605;28;20033;-73
2021/11/17 10:57:08;;;;;;;54.08;30.23;;;4.60;99.90;;;;;;5014522;28;20036;-73
2021/11/17 10:59:35;;;;;;;97.28;50.33;;;4.60;99.90;;;;;;5014554;28;21377;-73
2021/11/17 11:02:03;;;;;;;118.85;76.15;;;4.60;99.90;;;;;;5014601;28;20018;-73
2021/11/17 11:04:35;;;;;;;87.47;56.20;;;4.60;99.90;;;;;;5013201;28;20185;-73
2021/11/17 11:07:03;;;;;;;51.63;31.75;;;4.50;99.90;;;;;;5014537;28;20144;-73
2021/11/17 11:09:43;;;;;;;45.10;27.30;;;4.50;99.90;;;;;;5014454;28;20636;-73
2021/11/17 11:12:09;;;;;;;49.17;28.23;;;4.50;99.90;;;;;;5029731;28;20027;-73
2021/11/17 11:14:48;;;;;;;53.17;28.40;;;4.50;99.90;;;;;;5034032;28;20032;-73
2021/11/17 11:17:39;;;;;;;49.47;28.02;;;4.50;99.90;;;;;;5033996;28;20040;-73
2021/11/17 11:20:17;;;;;;;47.60;28.20;;;4.50;99.90;;;;;;5031286;28;20051;-73
2021/11/17 11:23:05;;;;;;;47.75;27.58;;;4.50;99.90;;;;;;5033876;28;20030;-73
2021/11/17 11:25:48;;;;;;;49.40;27.40;;;4.40;99.90;;;;;;5029601;28;20116;-73
2021/11/17 11:28:28;;;;;;;47.25;28.10;;;4.50;99.90;;;;;;5033712;28;20053;-73
2021/11/17 11:31:12;;;;;;;47.08;28.45;;;4.40;99.90;;;;;;5032952;28;20456;-73
2021/11/17 11:33:49;;;;;;;60.13;31.30;;;4.40;99.90;;;;;;5033276;28;20494;-73
2021/11/17 11:36:14;;;;;;;53.30;30.75;;;4.40;99.90;;;;;;5031356;28;20036;-73
2021/11/17 11:38:57;;;;;;;48.38;28.73;;;4.40;99.90;;;;;;5032523;28;20112;-73
2021/11/17 11:41:29;;;;;;;48.28;30.80;;;4.40;99.90;;;;;;5030939;28;20029;-73
2021/11/17 11:44:20;;;;;;;57.33;30.52;;;4.40;99.90;;;;;;5031529;28;20071;-73
2021/11/17 11:46:58;;;;;;;54.50;29.42;;;4.30;99.90;;;;;;5032368;28;20049;-73
2021/11/17 11:49:46;;;;;;;67.65;36.83;;;4.30;99.90;;;;;;5032880;28;20102;-73
2021/11/17 11:52:24;;;;;;;50.47;30.48;;;4.30;99.90;;;;;;5032844;28;20025;-73
2021/11/17 11:54:55;;;;;;;50.63;29.15;;;4.30;99.90;;;;;;5030814;28;20076;-73
2021/11/17 11:57:29;;;;;;;49.05;28.02;;;4.30;99.90;;;;;;5032785;28;20041;-73
2021/11/17 12:00:01;;;;;;;52.08;28.48;;;4.20;99.90;;;;;;5032492;28;20033;-73
2021/11/17 12:02:27;;;;;;;57.33;31.55;;;4.20;99.90;;;;;;5032361;28;20021;-73
2021/11/17 12:04:58;;;;;;;59.63;31.15;;;4.30;99.90;;;;;;5032446;28;20028;-73
2021/11/17 12:07:29;;;;;;;50.88;28.65;;;4.30;99.90;;;;;;5031265;28;20020;-73
2021/11/17 12:10:04;;;;;;;48.78;27.77;;;4.30;99.90;;;;;;5032447;28;20037;-73
2021/11/17 12:12:34;;;;;;;50.08;27.73;;;4.30;99.90;;;;;;5032724;28;20021;-73
2021/11/17 12:15:27;;;;;;;56.25;30.33;;;4.30;99.90;;;;;;5031817;28;20032;-73
2021/11/17 12:18:09;;;;;;;55.90;29.88;;;4.30;99.90;;;;;;5032367;28;20471;-73
2021/11/17 12:20:44;;;;;;;54.72;29.83;;;4.30;99.90;;;;;;5031714;28;20017;-73
2021/11/17 12:23:18;;;;;;;58.85;32.28;;;4.30;99.90;;;;;;5030715;28;20056;-73
2021/11/17 12:26:02;;;;;;;64.40;34.42;;;4.30;99.90;;;;;;5032513;28;20173;-73
2021/11/17 12:28:30;;;;;;;58.63;30.83;;;4.30;99.90;;;;;;5032302;28;20029;-73
2021/11/17 12:31:04;;;;;;;59.83;31.40;;;4.30;99.90;;;;;;5031858;28;20029;-75
2021/11/17 12:34:00;;;;;;;61.72;33.72;;;4.30;99.90;;;;;;5031124;28;20029;-75
2021/11/17 12:36:34;;;;;;;64.72;33.83;;;4.30;99.90;;;;;;5027472;28;20022;-75
2021/11/17 12:39:17;;;;;;;64.57;33.42;;;4.30;99.90;;;;;;5028187;28;20471;-76
2021/11/17 12:41:43;;;;;;;64.13;35.30;;;4.30;99.90;;;;;;5025393;28;20526;-75
2021/11/17 12:44:31;;;;;;;69.72;36.65;;;4.30;99.90;;;;;;5026174;28;20024;-75
2021/11/17 12:47:12;;;;;;;63.45;34.05;;;4.20;99.90;;;;;;5025548;28;20065;-75
2021/11/17 12:49:51;;;;;;;72.43;38.33;;;4.30;99.90;;;;;;5025978;28;20112;-75
2021/11/17 12:52:38;;;;;;;66.60;35.97;;;4.30;99.90;;;;;;5029584;28;20103;-75
2021/11/17 12:55:18;;;;;;;71.50;37.00;;;4.30;99.90;;;;;;5031371;28;20115;-73
2021/11/17 12:57:54;;;;;;;67.50;36.20;;;4.20;99.90;;;;;;5031107;28;20135;-73
2021/11/17 13:00:20;;;;;;;68.00;37.63;;;4.20;99.90;;;;;;5034174;28;20013;-73
2021/11/17 13:02:55;;;;;;;82.15;42.97;;;4.20;99.90;;;;;;5033437;28;20029;-73
2021/11/17 13:05:32;;;;;;;86.00;42.47;;;4.20;99.90;;;;;;5034512;28;20029;-73
2021/11/17 13:08:12;;;;;;;77.57;39.47;;;4.20;99.90;;;;;;5034119;28;20135;-73
2021/11/17 13:10:59;;;;;;;82.43;41.30;;;4.20;99.90;;;;;;5034513;28;20029;-73
2021/11/17 13:13:38;;;;;;;77.18;38.33;;;4.20;99.90;;;;;;5032158;28;20018;-73
2021/11/17 13:16:11;;;;;;;69.03;35.80;;;4.10;99.90;;;;;;5035118;28;20078;-73
2021/11/17 13:18:52;;;;;;;65.95;36.10;;;4.10;99.90;;;;;;5034280;28;20044;-73
2021/11/17 13:21:20;;;;;;;100.57;55.10;;;4.20;99.90;;;;;;5035321;28;20021;-73
2021/11/17 13:23:55;;;;;;;101.00;51.17;;;4.20;99.90;;;;;;5035592;28;20029;-73
2021/11/17 13:26:48;;;;;;;615.90;236.95;;;4.20;99.90;;;;;;5034022;28;20112;-73
2021/11/17 13:29:52;;;;;;;529.88;192.68;;;4.20;99.90;;;;;;5033715;28;20046;-73
2021/11/17 13:32:21;;;;;;;162.27;67.25;;;4.20;99.90;;;;;;5035649;28;20510;-73
2021/11/17 13:34:51;;;;;;;101.65;47.63;;;4.20;99.90;;;;;;5035236;28;20487;-73
2021/11/17 13:37:34;;;;;;;83.63;40.90;;;4.10;99.90;;;;;;5034799;28;20064;-73
2021/11/17 13:40:05;;;;;;;457.35;160.80;;;4.10;99.90;;;;;;5034028;28;20110;-73
2021/11/17 13:42:30;;;;;;;353.05;126.63;;;4.10;99.90;;;;;;5035209;28;20028;-73
2021/11/17 13:44:58;;;;;;;169.85;70.20;;;4.10;99.90;;;;;;5034799;28;20112;-73
2021/11/17 13:47:27;;;;;;;240.38;85.95;;;4.10;99.90;;;;;;5035012;28;20022;-73
2021/11/17 13:49:55;;;;;;;357.00;127.80;;;4.10;99.90;;;;;;5035113;28;20026;-73
2021/11/17 13:52:25;;;;;;;216.65;88.00;;;4.10;99.90;;;;;;5034669;28;20018;-73
2021/11/17 13:54:51;;;;;;;164.70;65.70;;;4.10;99.90;;;;;;5033845;28;20448;-73
2021/11/17 13:57:17;;;;;;;213.55;81.68;;;4.10;99.90;;;;;;5035235;28;20438;-73
2021/11/17 13:59:44;;;;;;;135.95;59.33;;;4.10;99.90;;;;;;5033107;28;20037;-73
2021/11/17 14:02:11;;;;;;;148.52;64.50;;;4.10;99.90;;;;;;5034585;28;20030;-73
2021/11/17 14:04:37;;;;;;;188.07;75.75;;;4.10;99.90;;;;;;5034093;28;20117;-73
2021/11/17 14:07:02;;;;;;;100.20;50.25;;;4.10;99.90;;;;;;5033229;28;20053;-73
2021/11/17 14:09:29;;;;;;;106.57;55.03;;;4.10;99.90;;;;;;5034942;28;20064;-73
2021/11/17 14:11:57;;;;;;;101.13;53.92;;;4.00;99.90;;;;;;5034951;28;20024;-73
2021/11/17 14:14:23;;;;;;;111.03;54.45;;;4.00;99.90;;;;;;5034123;28;20443;-73
2021/11/17 14:16:49;;;;;;;113.13;59.17;;;4.00;99.90;;;;;;5033647;28;20053;-73
2021/11/17 14:19:15;;;;;;;109.40;56.78;;;4.10;99.90;;;;;;5034905;28;20025;-73
2021/11/17 14:21:42;;;;;;;109.40;59.65;;;4.00;99.90;;;;;;5034394;28;20021;-73
2021/11/17 14:24:10;;;;;;;115.93;56.67;;;4.10;99.90;;;;;;5034728;28;20026;-73
2021/11/17 14:26:40;;;;;;;113.55;58.90;;;4.10;99.90;;;;;;5033441;28;20546;-73
2021/11/17 14:29:10;;;;;;;109.50;55.97;;;4.10;99.90;;;;;;5032115;28;20071;-73
2021/11/17 14:31:40;;;;;;;173.52;81.20;;;4.10;99.90;;;;;;5034929;28;20057;-73
2021/11/17 14:34:07;;;;;;;139.88;72.78;;;4.10;99.90;;;;;;5034728;28;20102;-73
2021/11/17 14:36:40;;;;;;;134.00;69.85;;;4.10;99.90;;;;;;5033676;28;20021;-73
2021/11/17 14:39:07;;;;;;;129.13;62.28;;;4.10;99.90;;;;;;5034599;28;20033;-73
2021/11/17 14:41:33;;;;;;;113.78;61.78;;;4.10;99.90;;;;;;5033128;28;20378;-73
2021/11/17 14:43:59;;;;;;;123.43;70.35;;;4.00;99.90;;;;;;5032463;28;20529;-73
2021/11/17 14:46:26;;;;;;;125.03;65.40;;;4.00;99.90;;;;;;5034369;28;20029;-73
2021/11/17 14:48:51;;;;;;;121.88;64.90;;;4.00;99.90;;;;;;5034339;28;20479;-73
2021/11/17 14:51:17;;;;;;;124.47;67.18;;;4.10;99.90;;;;;;5031690;28;20037;-73
2021/11/17 14:53:45;;;;;;;127.05;64.82;;;4.10;99.90;;;;;;5033034;28;20021;-73
2021/11/17 14:56:12;;;;;;;187.75;87.88;;;4.10;99.90;;;;;;5033917;28;20025;-73
2021/11/17 14:58:38;;;;;;;158.32;74.95;;;4.10;99.90;;;;;;5033459;28;20068;-73
2021/11/17 15:01:08;;;;;;;241.95;110.70;;;4.10;99.90;;;;;;5034135;28;20053;-73
2021/11/17 15:03:35;;;;;;;175.93;85.15;;;4.10;99.90;;;;;;5017539;28;20072;-73
2021/11/17 15:06:00;;;;;;;191.93;86.30;;;4.10;99.90;;;;;;5026549;28;20030;-73
2021/11/17 15:08:26;;;;;;;168.80;78.60;;;4.10;99.90;;;;;;5033462;28;20108;-73
2021/11/17 15:10:52;;;;;;;158.65;75.43;;;4.10;99.90;;;;;;5033157;28;20065;-73
2021/11/17 15:13:18;;;;;;;163.48;77.45;;;4.10;99.90;;;;;;5014740;28;20033;-73
2021/11/17 15:15:46;;;;;;;145.60;73.22;;;4.10;99.90;;;;;;5013540;28;20021;-73
2021/11/17 15:18:16;;;;;;;163.98;80.47;;;4.10;99.90;;;;;;5015930;28;20034;-73
2021/11/17 15:20:42;;;;;;;176.90;81.28;;;4.10;99.90;;;;;;5029857;28;20034;-73
2021/11/17 15:23:07;;;;;;;148.88;74.65;;;4.10;99.90;;;;;;5030889;28;20383;-73
2021/11/17 15:25:36;;;;;;;160.60;71.90;;;4.10;99.90;;;;;;5031391;28;20139;-73
2021/11/17 15:28:16;;;;;;;152.65;74.90;;;4.10;99.90;;;;;;5027123;28;20025;-73
2021/11/17 15:30:46;;;;;;;157.00;76.20;;;4.10;99.90;;;;;;5019011;28;20034;-73
2021/11/17 15:33:12;;;;;;;131.57;68.47;;;4.10;99.90;;;;;;5023123;28;20021;-73
2021/11/17 15:35:39;;;;;;;136.77;68.05;;;4.10;99.90;;;;;;5023422;28;20030;-73
2021/11/17 15:38:06;;;;;;;129.48;63.17;;;4.10;99.90;;;;;;5022361;28;20025;-73
2021/11/17 15:40:36;;;;;;;121.07;60.88;;;4.10;99.90;;;;;;5017625;28;20049;-73